Time;durP1;ratioP1;P1;durP2;ratioP2;P2;SDS_P1;SDS_P2;PMS_P1;PMS_P2;Temp;Humidity;BMP_temperature;BMP_pressure;BME280_temperature;BME280_humidity;BME280_pressure;Samples;Min_cycle;Max_cycle;Signal;HPM_P1;HPM_P2
2021/04/13 00:00:26;;;;;;;0.40;0.30;;;;;;;;;;3595508;39;20392;-71
2021/04/13 00:02:54;;;;;;;1.10;0.15;;;;;;;;;;3597091;39;20761;-71
2021/04/13 00:05:24;;;;;;;0.15;0.10;;;;;;;;;;3598459;39;20499;-71
2021/04/13 00:07:51;;;;;;;0.50;0.20;;;;;;;;;;3588457;40;20406;-71
2021/04/13 00:10:20;;;;;;;0.70;0.10;;;;;;;;;;3598156;40;20395;-70
2021/04/13 00:12:47;;;;;;;0.85;0.20;;;;;;;;;;3598198;40;20377;-72
2021/04/13 00:15:16;;;;;;;0.30;0.10;;;;;;;;;;3598248;40;20469;-70
2021/04/13 00:17:44;;;;;;;0.30;0.13;;;;;;;;;;3597990;39;20411;-70
2021/04/13 00:20:12;;;;;;;0.60;0.20;;;;;;;;;;3597191;40;20439;-71
2021/04/13 00:22:40;;;;;;;1.30;0.20;;;;;;;;;;3591881;40;20369;-70
2021/04/13 00:25:07;;;;;;;0.60;0.15;;;;;;;;;;3598216;40;20452;-71
2021/04/13 00:27:33;;;;;;;0.90;0.20;;;;;;;;;;3597951;39;20389;-70
2021/04/13 00:30:07;;;;;;;0.40;0.25;;;;;;;;;;3599159;39;20484;-71
2021/04/13 00:32:36;;;;;;;0.50;0.20;;;;;;;;;;3597951;40;20781;-71
2021/04/13 00:35:14;;;;;;;0.30;0.20;;;;;;;;;;3598084;40;20435;-71
2021/04/13 00:37:41;;;;;;;0.70;0.10;;;;;;;;;;3598247;40;20426;-70
2021/04/13 00:40:19;;;;;;;0.30;0.20;;;;;;;;;;3598098;40;20380;-70
2021/04/13 00:42:46;;;;;;;0.20;0.10;;;;;;;;;;3592558;40;20386;-71
2021/04/13 00:45:15;;;;;;;0.47;0.20;;;;;;;;;;3592753;40;20427;-71
2021/04/13 00:47:44;;;;;;;0.60;0.25;;;;;;;;;;3599723;39;20375;-70
2021/04/13 00:50:12;;;;;;;0.28;0.28;;;;;;;;;;3592484;40;20400;-71
2021/04/13 00:52:41;;;;;;;0.20;0.20;;;;;;;;;;3592711;40;20378;-70
2021/04/13 00:55:08;;;;;;;0.70;0.30;;;;;;;;;;3596613;39;20775;-71
2021/04/13 00:57:37;;;;;;;1.70;0.30;;;;;;;;;;3593490;39;20377;-70
2021/04/13 01:00:05;;;;;;;1.13;0.20;;;;;;;;;;3592145;40;20399;-70
2021/04/13 01:05:06;;;;;;;0.40;0.20;;;;;;;;;;3608759;39;20411;-74
2021/04/13 01:07:33;;;;;;;1.27;0.30;;;;;;;;;;3591557;40;20877;-74
2021/04/13 01:10:02;;;;;;;0.30;0.22;;;;;;;;;;3601244;40;20364;-74
2021/04/13 01:12:29;;;;;;;0.57;0.30;;;;;;;;;;3589657;40;20410;-74
2021/04/13 01:14:56;;;;;;;0.35;0.30;;;;;;;;;;3590653;40;20803;-74
2021/04/13 01:17:23;;;;;;;0.45;0.20;;;;;;;;;;3589683;40;20726;-73
2021/04/13 01:19:53;;;;;;;0.43;0.30;;;;;;;;;;3591938;40;20672;-74
2021/04/13 01:22:29;;;;;;;0.65;0.20;;;;;;;;;;3589547;40;20479;-74
2021/04/13 01:24:58;;;;;;;0.45;0.25;;;;;;;;;;3600980;40;20730;-73
2021/04/13 01:27:25;;;;;;;0.50;0.30;;;;;;;;;;3600951;40;20389;-74
2021/04/13 01:29:52;;;;;;;0.90;0.20;;;;;;;;;;3600920;40;20369;-74
2021/04/13 01:32:19;;;;;;;0.70;0.30;;;;;;;;;;3600818;40;20357;-73
2021/04/13 01:34:51;;;;;;;0.30;0.30;;;;;;;;;;3600690;40;20811;-73
2021/04/13 01:42:38;;;;;;;0.50;0.20;;;;;;;;;;3568597;40;20950;-74
2021/04/13 01:45:06;;;;;;;1.05;0.20;;;;;;;;;;3568968;40;20385;-72
2021/04/13 01:47:33;;;;;;;1.00;0.30;;;;;;;;;;3568830;40;20378;-73
2021/04/13 01:50:00;;;;;;;0.50;0.40;;;;;;;;;;3568961;40;20362;-73
2021/04/13 01:52:29;;;;;;;0.60;0.30;;;;;;;;;;3568630;40;20426;-73
2021/04/13 01:54:55;;;;;;;0.73;0.20;;;;;;;;;;3568954;40;20346;-73
2021/04/13 01:57:30;;;;;;;0.38;0.30;;;;;;;;;;3568523;40;20366;-73
2021/04/13 02:00:01;;;;;;;0.90;0.22;;;;;;;;;;3569099;40;20369;-73
2021/04/13 02:02:30;;;;;;;1.15;0.30;;;;;;;;;;3572628;40;20530;-70
2021/04/13 02:05:00;;;;;;;0.50;0.40;;;;;;;;;;3578840;40;20504;-72
2021/04/13 02:07:41;;;;;;;2.45;0.30;;;;;;;;;;3590917;39;20419;-71
2021/04/13 02:10:13;;;;;;;0.40;0.30;;;;;;;;;;3568645;40;20464;-71
2021/04/13 02:12:44;;;;;;;1.25;0.20;;;;;;;;;;3559907;40;20418;-70
2021/04/13 02:15:15;;;;;;;0.73;0.35;;;;;;;;;;3568555;40;20386;-70
2021/04/13 02:17:44;;;;;;;0.75;0.30;;;;;;;;;;3560684;40;20350;-71
2021/04/13 02:20:12;;;;;;;0.30;0.25;;;;;;;;;;3575250;40;20406;-70
2021/04/13 02:22:42;;;;;;;0.55;0.30;;;;;;;;;;3570344;40;20395;-71
2021/04/13 02:25:09;;;;;;;0.40;0.30;;;;;;;;;;3568598;40;20402;-71
2021/04/13 02:27:38;;;;;;;1.13;0.28;;;;;;;;;;3569161;40;20759;-71
2021/04/13 02:30:07;;;;;;;1.43;0.30;;;;;;;;;;3568798;40;20408;-72
2021/04/13 02:32:34;;;;;;;0.65;0.30;;;;;;;;;;3568945;40;20350;-71
2021/04/13 02:35:02;;;;;;;1.10;0.30;;;;;;;;;;3560228;40;20419;-71
2021/04/13 02:37:36;;;;;;;2.47;0.30;;;;;;;;;;3568521;40;20739;-70
2021/04/13 02:40:05;;;;;;;1.02;0.30;;;;;;;;;;3570742;40;20361;-72
2021/04/13 02:42:37;;;;;;;0.55;0.30;;;;;;;;;;3600671;39;20349;-71
2021/04/13 02:45:05;;;;;;;1.05;0.20;;;;;;;;;;3591515;40;20397;-71
2021/04/13 02:47:36;;;;;;;0.30;0.30;;;;;;;;;;3591786;40;20396;-72
2021/04/13 02:50:05;;;;;;;0.80;0.30;;;;;;;;;;3601831;40;20422;-72
2021/04/13 02:52:33;;;;;;;0.75;0.38;;;;;;;;;;3601596;40;20642;-72
2021/04/13 02:55:00;;;;;;;0.85;0.40;;;;;;;;;;3601796;40;20341;-72
2021/04/13 02:57:28;;;;;;;1.58;0.30;;;;;;;;;;3600497;40;20343;-72
2021/04/13 02:59:58;;;;;;;0.67;0.20;;;;;;;;;;3600778;40;20509;-72
2021/04/13 03:02:27;;;;;;;1.00;0.40;;;;;;;;;;3600825;40;20768;-74
2021/04/13 03:04:54;;;;;;;0.45;0.20;;;;;;;;;;3591978;40;20400;-72
2021/04/13 03:07:22;;;;;;;1.67;0.70;;;;;;;;;;3592162;40;20416;-73
2021/04/13 03:09:50;;;;;;;0.70;0.50;;;;;;;;;;3609645;39;20394;-71
2021/04/13 03:12:16;;;;;;;0.90;0.30;;;;;;;;;;3601188;40;20743;-72
2021/04/13 03:14:45;;;;;;;1.33;0.30;;;;;;;;;;3601591;39;20359;-73
2021/04/13 03:17:14;;;;;;;0.30;0.28;;;;;;;;;;3601937;40;20341;-73
2021/04/13 03:19:40;;;;;;;1.02;0.50;;;;;;;;;;3592763;40;20384;-71
2021/04/13 03:22:08;;;;;;;0.50;0.30;;;;;;;;;;3601836;40;20352;-73
2021/04/13 03:24:37;;;;;;;2.00;0.60;;;;;;;;;;3601462;39;20767;-73
2021/04/13 03:27:04;;;;;;;0.40;0.30;;;;;;;;;;3601093;40;20789;-72
2021/04/13 03:29:33;;;;;;;1.10;0.40;;;;;;;;;;3601168;39;20408;-72
2021/04/13 03:32:00;;;;;;;0.80;0.35;;;;;;;;;;3601406;39;20406;-72
2021/04/13 03:34:26;;;;;;;0.65;0.40;;;;;;;;;;3591411;40;20457;-72
2021/04/13 03:36:53;;;;;;;0.90;0.40;;;;;;;;;;3592146;40;20396;-72
2021/04/13 03:39:33;;;;;;;1.45;0.50;;;;;;;;;;3600887;40;20392;-73
2021/04/13 03:42:00;;;;;;;0.80;0.35;;;;;;;;;;3600822;40;20341;-72
2021/04/13 03:44:28;;;;;;;1.00;0.40;;;8.70;39.30;;;;;;3591743;40;20574;-72
2021/04/13 03:46:55;;;;;;;1.25;0.50;;;8.50;39.60;;;;;;3601080;40;20355;-72
2021/04/13 03:49:26;;;;;;;1.93;0.30;;;8.50;39.30;;;;;;3600873;40;20388;-72
2021/04/13 03:51:56;;;;;;;1.65;0.30;;;8.60;38.40;;;;;;3600680;40;20352;-72
2021/04/13 03:54:26;;;;;;;0.60;0.30;;;8.60;37.80;;;;;;3600180;40;20502;-72
2021/04/13 03:56:53;;;;;;;0.90;0.30;;;8.70;38.20;;;;;;3599919;40;20498;-73
2021/04/13 03:59:21;;;;;;;0.50;0.30;;;8.80;38.80;;;;;;3600475;40;20712;-73
2021/04/13 04:01:48;;;;;;;0.43;0.30;;;8.70;39.70;;;;;;3598443;40;20396;-72
2021/04/13 04:04:23;;;;;;;1.20;0.40;;;8.60;38.50;;;;;;3601127;40;20457;-72
2021/04/13 04:07:16;;;;;;;0.43;0.30;;;8.70;38.70;;;;;;3590158;40;20374;-72
2021/04/13 04:09:42;;;;;;;2.03;0.30;;;8.50;40.20;;;;;;3576208;40;20498;-72
2021/04/13 04:12:18;;;;;;;0.63;0.30;;;8.50;39.20;;;;;;3568514;40;20601;-73
2021/04/13 04:15:00;;;;;;;0.82;0.30;;;8.40;38.10;;;;;;3571417;40;20377;-72
2021/04/13 04:17:29;;;;;;;0.30;0.20;;;8.50;38.90;;;;;;3571528;40;20374;-73
2021/04/13 04:19:57;;;;;;;0.47;0.32;;;8.60;38.70;;;;;;3563281;40;20381;-72
2021/04/13 04:22:24;;;;;;;1.73;0.50;;;8.60;39.30;;;;;;3571929;40;20365;-72
2021/04/13 04:24:53;;;;;;;1.10;0.30;;;8.70;37.50;;;;;;3572195;40;20380;-72
2021/04/13 04:27:32;;;;;;;0.50;0.35;;;8.70;38.00;;;;;;3579490;40;20778;-72
2021/04/13 04:30:09;;;;;;;0.52;0.30;;;8.80;38.20;;;;;;3570872;40;20449;-74
2021/04/13 04:32:40;;;;;;;0.75;0.30;;;8.70;38.30;;;;;;3571239;40;20448;-71
2021/04/13 04:35:08;;;;;;;1.00;0.30;;;8.60;37.70;;;;;;3580538;40;20824;-73
2021/04/13 04:37:37;;;;;;;0.50;0.40;;;8.60;38.50;;;;;;3583706;40;20456;-73
2021/04/13 04:40:18;;;;;;;1.38;0.50;;;8.50;39.60;;;;;;3592081;40;20391;-72
2021/04/13 04:42:54;;;;;;;0.65;0.30;;;8.50;39.30;;;;;;3592935;40;20733;-72
2021/04/13 04:45:33;;;;;;;1.02;0.32;;;8.40;39.40;;;;;;3593514;40;20455;-72
2021/04/13 04:48:00;;;;;;;0.60;0.40;;;8.40;38.70;;;;;;3582604;40;20772;-72
2021/04/13 04:50:26;;;;;;;0.55;0.30;;;8.40;38.60;;;;;;3591388;40;20382;-72
2021/04/13 04:52:52;;;;;;;1.00;0.40;;;8.40;39.20;;;;;;3582904;40;20461;-73
2021/04/13 04:55:19;;;;;;;0.80;0.30;;;8.40;38.70;;;;;;3591788;40;20625;-73
2021/04/13 04:57:45;;;;;;;1.10;0.40;;;8.50;38.40;;;;;;3580073;40;20431;-72
2021/04/13 05:00:12;;;;;;;0.90;0.30;;;8.60;38.40;;;;;;3572197;40;20406;-72
2021/04/13 05:02:38;;;;;;;0.60;0.30;;;8.60;38.60;;;;;;3595218;40;20402;-71
2021/04/13 05:05:05;;;;;;;0.65;0.32;;;8.60;38.90;;;;;;3597960;39;20361;-73
2021/04/13 05:07:31;;;;;;;0.50;0.40;;;8.60;38.80;;;;;;3571931;40;20386;-72
2021/04/13 05:09:57;;;;;;;1.00;0.40;;;8.50;39.10;;;;;;3570418;40;20410;-73
2021/04/13 05:12:24;;;;;;;0.88;0.30;;;8.40;39.10;;;;;;3568335;40;20405;-73
2021/04/13 05:14:50;;;;;;;0.63;0.38;;;8.40;38.60;;;;;;3567894;40;20394;-73
2021/04/13 05:17:16;;;;;;;0.57;0.40;;;8.40;39.50;;;;;;3568201;40;20402;-72
2021/04/13 05:19:42;;;;;;;1.15;0.38;;;8.40;39.20;;;;;;3570821;40;20366;-72
2021/04/13 05:22:08;;;;;;;2.17;0.40;;;8.40;38.90;;;;;;3571021;40;20484;-71
2021/04/13 05:24:34;;;;;;;0.80;0.60;;;;;;;;;;3569767;40;20745;-72
2021/04/13 05:27:00;;;;;;;1.50;1.00;;;;;;;;;;3570748;40;20382;-72
2021/04/13 05:29:28;;;;;;;1.30;1.10;;;;;;;;;;3568951;40;20523;-72
2021/04/13 05:31:54;;;;;;;1.33;0.63;;;;;;;;;;3570072;40;20791;-72
2021/04/13 05:34:20;;;;;;;0.77;0.40;;;;;;;;;;3550186;40;20401;-72
2021/04/13 05:36:50;;;;;;;1.75;0.52;;;;;;;;;;3550983;40;20768;-73
2021/04/13 05:39:17;;;;;;;0.60;0.40;;;;;;;;;;3574833;40;20364;-72
2021/04/13 05:41:43;;;;;;;0.60;0.40;;;;;;;;;;3571112;40;20404;-73
2021/04/13 05:44:09;;;;;;;0.50;0.40;;;;;;;;;;3579915;40;20375;-72
2021/04/13 05:46:38;;;;;;;0.65;0.35;;;;;;;;;;3580177;40;20430;-72
2021/04/13 05:49:04;;;;;;;0.70;0.40;;;;;;;;;;3580163;40;20780;-71
2021/04/13 05:51:30;;;;;;;1.10;0.35;;;;;;;;;;3579875;40;20356;-71
2021/04/13 05:53:57;;;;;;;0.40;0.40;;;;;;;;;;3571769;40;20447;-73
2021/04/13 05:56:27;;;;;;;0.93;0.40;;;;;;;;;;3579988;40;20364;-73
2021/04/13 05:58:55;;;;;;;1.90;0.40;;;;;;;;;;3579562;40;20355;-74
2021/04/13 06:01:23;;;;;;;0.68;0.40;;;;;;;;;;3579043;40;20356;-72
2021/04/13 06:03:50;;;;;;;0.50;0.30;;;;;;;;;;3579784;40;20482;-72
2021/04/13 06:06:17;;;;;;;0.73;0.40;;;;;;;;;;3599231;39;20470;-73
2021/04/13 06:08:43;;;;;;;1.60;0.40;;;;;;;;;;3612007;39;20631;-73
2021/04/13 06:11:12;;;;;;;1.35;0.40;;;;;;;;;;3611552;39;20702;-73
2021/04/13 06:13:38;;;;;;;1.33;0.40;;;;;;;;;;3611848;39;20350;-72
2021/04/13 06:16:07;;;;;;;1.38;0.50;;;8.50;38.80;;;;;;3611963;39;20343;-72
2021/04/13 06:18:33;;;;;;;1.00;0.40;;;9.00;37.80;;;;;;3610383;39;20779;-71
2021/04/13 06:21:00;;;;;;;0.60;0.40;;;9.10;39.30;;;;;;3608812;39;20443;-71
2021/04/13 06:23:26;;;;;;;2.42;0.43;;;9.00;38.80;;;;;;3611098;39;20639;-72
2021/04/13 06:25:52;;;;;;;1.20;0.45;;;9.10;39.30;;;;;;3611229;39;20401;-72
2021/04/13 06:28:18;;;;;;;1.52;0.50;;;9.20;38.70;;;;;;3611552;39;20359;-72
2021/04/13 06:30:44;;;;;;;0.53;0.40;;;9.10;38.80;;;;;;3611376;39;20743;-72
2021/04/13 06:33:11;;;;;;;0.82;0.45;;;9.20;37.30;;;;;;3610867;39;20354;-72
2021/04/13 06:35:37;;;;;;;1.27;0.40;;;9.30;38.20;;;;;;3610772;39;20713;-72
2021/04/13 06:38:10;;;;;;;3.22;1.45;;;9.20;39.10;;;;;;3599678;39;20436;-72
2021/04/13 06:41:02;;;;;;;0.60;0.45;;;9.30;38.70;;;;;;3611512;39;20355;-71
2021/04/13 06:43:42;;;;;;;2.40;0.57;;;9.40;39.90;;;;;;3611154;39;20461;-72
2021/04/13 06:46:15;;;;;;;1.03;0.40;;;9.60;37.90;;;;;;3609566;39;20430;-72
2021/04/13 06:48:47;;;;;;;1.00;0.60;;;;;;;;;;3610196;39;20712;-72
2021/04/13 06:51:19;;;;;;;2.22;0.40;;;;;;;;;;3589946;40;20408;-72
2021/04/13 06:54:00;;;;;;;0.60;0.38;;;;;;;;;;3598413;40;20664;-72
2021/04/13 06:56:30;;;;;;;2.05;0.40;;;;;;;;;;3588227;40;20692;-71
2021/04/13 06:59:14;;;;;;;1.63;0.30;;;;;;;;;;3588176;40;20374;-72
2021/04/13 07:01:43;;;;;;;1.35;0.40;;;;;;;;;;3577966;40;20415;-72
2021/04/13 07:04:11;;;;;;;1.67;0.50;;;;;;;;;;3560949;40;20403;-72
2021/04/13 07:06:39;;;;;;;0.95;0.40;;;;;;;;;;3577265;40;20745;-72
2021/04/13 07:09:09;;;;;;;1.40;0.50;;;;;;;;;;3568789;40;20353;-72
2021/04/13 07:11:38;;;;;;;1.40;0.43;;;;;;;;;;3568313;40;20747;-72
2021/04/13 07:14:06;;;;;;;2.10;0.40;;;;;;;;;;3577583;40;20364;-71
2021/04/13 07:16:34;;;;;;;0.90;0.50;;;;;;;;;;3578112;40;20387;-72
2021/04/13 07:19:08;;;;;;;0.82;0.40;;;;;;;;;;3577761;40;20352;-73
2021/04/13 07:21:39;;;;;;;1.30;0.50;;;9.70;39.10;;;;;;3577072;40;20388;-72
2021/04/13 07:24:09;;;;;;;1.20;0.50;;;;;;;;;;3577416;40;20371;-72
2021/04/13 07:26:37;;;;;;;0.70;0.40;;;;;;;;;;3578637;40;20410;-72
2021/04/13 07:29:12;;;;;;;1.10;0.50;;;;;;;;;;3586978;40;20473;-72
2021/04/13 07:31:42;;;;;;;0.57;0.40;;;;;;;;;;3587654;40;20352;-71
2021/04/13 07:34:09;;;;;;;0.52;0.32;;;;;;;;;;3597294;40;20357;-72
2021/04/13 07:36:39;;;;;;;0.95;0.40;;;;;;;;;;3586779;40;20502;-71
2021/04/13 07:39:05;;;;;;;1.15;0.30;;;;;;;;;;3586717;40;20762;-72
2021/04/13 07:41:38;;;;;;;0.63;0.40;;;;;;;;;;3598837;39;20400;-73
2021/04/13 07:44:06;;;;;;;1.45;0.30;;;;;;;;;;3598591;40;20406;-72
2021/04/13 07:46:47;;;;;;;0.82;0.38;;;;;;;;;;3598470;40;20349;-72
2021/04/13 07:49:15;;;;;;;0.50;0.30;;;;;;;;;;3555895;40;20412;-73
2021/04/13 07:51:48;;;;;;;0.95;0.40;;;;;;;;;;3556383;40;20422;-70
2021/04/13 07:54:27;;;;;;;0.60;0.40;;;;;;;;;;3566412;40;20695;-72
2021/04/13 07:56:56;;;;;;;0.70;0.40;;;;;;;;;;3556246;40;20360;-71
2021/04/13 07:59:27;;;;;;;1.30;0.30;;;;;;;;;;3556945;40;20395;-72
2021/04/13 08:01:53;;;;;;;0.60;0.40;;;;;;;;;;3598237;40;20376;-72
2021/04/13 08:04:20;;;;;;;0.60;0.30;;;;;;;;;;3598147;40;20726;-71
2021/04/13 08:06:48;;;;;;;0.57;0.40;;;;;;;;;;3600566;39;20377;-72
2021/04/13 08:09:28;;;;;;;1.65;0.30;;;;;;;;;;3607850;39;20389;-72
2021/04/13 08:12:07;;;;;;;0.60;0.30;;;;;;;;;;3565909;40;20369;-71
2021/04/13 08:14:35;;;;;;;0.95;0.45;;;;;;;;;;3565867;40;20639;-71
2021/04/13 08:17:06;;;;;;;0.68;0.30;;;13.10;32.50;;;;;;3565713;40;20432;-71
2021/04/13 08:19:33;;;;;;;0.70;0.30;;;13.10;32.60;;;;;;3565680;40;20357;-70
2021/04/13 08:22:00;;;;;;;0.80;0.30;;;;;;;;;;3565193;40;20614;-72
2021/04/13 08:24:35;;;;;;;0.70;0.40;;;;;;;;;;3539210;40;20433;-71
2021/04/13 08:27:13;;;;;;;0.55;0.30;;;;;;;;;;3547309;40;20377;-72
2021/04/13 08:29:48;;;;;;;1.45;0.60;;;;;;;;;;3547211;40;20436;-70
2021/04/13 08:35:08;;;;;;;1.73;0.63;;;;;;;;;;3547002;40;20361;-71
2021/04/13 08:37:58;;;;;;;0.38;0.30;;;;;;;;;;3547045;40;20365;-71
2021/04/13 08:40:26;;;;;;;1.50;0.30;;;;;;;;;;3517619;40;20370;-71
2021/04/13 08:42:58;;;;;;;1.40;0.30;;;;;;;;;;3517113;40;20818;-71
2021/04/13 08:45:30;;;;;;;1.70;0.30;;;;;;;;;;3517957;40;20763;-71
2021/04/13 08:48:00;;;;;;;0.63;0.40;;;;;;;;;;3526435;40;20495;-71
2021/04/13 08:50:30;;;;;;;1.20;0.38;;;;;;;;;;3546769;40;20400;-71
2021/04/13 08:52:57;;;;;;;0.60;0.30;;;;;;;;;;3546912;40;20411;-72
2021/04/13 08:55:32;;;;;;;0.60;0.32;;;;;;;;;;3546784;40;20472;-71
2021/04/13 08:58:04;;;;;;;1.05;0.65;;;;;;;;;;3546722;40;20475;-70
2021/04/13 09:00:45;;;;;;;0.77;0.52;;;;;;;;;;3546352;40;20417;-70
2021/04/13 09:03:12;;;;;;;1.60;0.60;;;;;;;;;;3555032;40;20804;-71
2021/04/13 09:05:40;;;;;;;1.08;0.57;;;;;;;;;;3556533;40;20352;-71
2021/04/13 09:08:08;;;;;;;1.70;0.50;;;;;;;;;;3556133;40;20429;-71
2021/04/13 09:10:37;;;;;;;0.80;0.50;;;;;;;;;;3556213;40;20407;-71
2021/04/13 09:13:06;;;;;;;1.42;0.50;;;;;;;;;;3556326;40;20368;-71
2021/04/13 09:15:33;;;;;;;1.48;0.55;;;;;;;;;;3556282;40;20374;-71
2021/04/13 09:18:16;;;;;;;2.08;0.90;;;;;;;;;;3596116;40;20364;-71
2021/04/13 09:20:45;;;;;;;1.20;0.40;;;;;;;;;;3599694;39;20403;-70
2021/04/13 09:23:18;;;;;;;2.20;0.63;;;;;;;;;;3614518;39;20399;-70
2021/04/13 09:25:55;;;;;;;1.58;0.60;;;;;;;;;;3628646;39;20624;-70
2021/04/13 09:28:24;;;;;;;1.07;0.53;;;13.30;32.10;;;;;;3595612;39;20455;-71
2021/04/13 09:30:51;;;;;;;1.42;0.90;;;;;;;;;;3585880;40;20389;-70
2021/04/13 09:33:38;;;;;;;0.90;0.50;;;;;;;;;;3585916;40;20354;-70
2021/04/13 09:36:15;;;;;;;1.83;0.50;;;;;;;;;;3571509;40;20405;-70
2021/04/13 09:38:56;;;;;;;1.35;0.60;;;;;;;;;;3590207;40;20467;-71
2021/04/13 09:41:32;;;;;;;2.10;0.50;;;;;;;;;;3546245;40;20372;-70
2021/04/13 09:44:07;;;;;;;0.80;0.52;;;;;;;;;;3546225;40;20718;-70
2021/04/13 09:46:50;;;;;;;1.15;0.70;;;;;;;;;;3536348;40;20423;-69
2021/04/13 09:49:25;;;;;;;1.23;0.80;;;;;;;;;;3536197;40;20805;-70
2021/04/13 09:52:09;;;;;;;1.80;0.60;;;;;;;;;;3536505;40;20767;-69
2021/04/13 09:54:38;;;;;;;2.58;0.60;;;;;;;;;;3506978;40;20677;-70
2021/04/13 09:57:23;;;;;;;1.93;0.87;;;;;;;;;;3507346;40;20410;-70
2021/04/13 10:00:10;;;;;;;1.03;0.70;;;;;;;;;;3520361;40;20405;-70
2021/04/13 10:02:50;;;;;;;1.92;0.60;;;;;;;;;;3517356;40;20792;-70
2021/04/13 10:05:17;;;;;;;1.38;0.85;;;;;;;;;;3521519;40;20416;-70
2021/04/13 10:07:53;;;;;;;0.98;0.70;;;;;;;;;;3525915;40;20404;-71
2021/04/13 10:10:22;;;;;;;1.40;0.70;;;;;;;;;;3526655;40;20448;-69
2021/04/13 10:13:12;;;;;;;1.25;0.70;;;;;;;;;;3526310;40;20928;-70
2021/04/13 10:15:59;;;;;;;1.15;0.70;;;;;;;;;;3535041;40;20387;-70
2021/04/13 10:18:46;;;;;;;0.85;0.70;;;;;;;;;;3553334;40;20864;-70
2021/04/13 10:21:16;;;;;;;1.50;0.68;;;;;;;;;;3547417;40;20410;-70
2021/04/13 10:23:57;;;;;;;1.10;0.90;;;;;;;;;;3555520;40;20384;-70
2021/04/13 10:26:45;;;;;;;1.80;0.73;;;;;;;;;;3574895;40;20388;-70
2021/04/13 10:29:21;;;;;;;1.58;0.60;;;;;;;;;;3565351;40;20749;-70
2021/04/13 10:31:58;;;;;;;1.33;0.73;;;;;;;;;;3576438;40;20385;-70
2021/04/13 10:34:40;;;;;;;1.10;0.65;;;;;;;;;;3583544;40;20657;-70
2021/04/13 10:37:24;;;;;;;1.17;0.60;;;;;;;;;;3575825;40;20395;-69
2021/04/13 10:40:03;;;;;;;2.10;0.70;;;;;;;;;;3579241;40;20409;-70
2021/04/13 10:43:01;;;;;;;0.93;0.70;;;14.10;44.10;;;;;;3577141;40;20404;-70
2021/04/13 10:46:03;;;;;;;0.80;0.57;;;14.70;44.50;;;;;;3585455;40;20875;-70
2021/04/13 10:48:48;;;;;;;1.00;0.73;;;;;;;;;;3555348;40;20387;-70
2021/04/13 10:51:29;;;;;;;0.82;0.63;;;;;;;;;;3577496;40;20389;-70
2021/04/13 10:54:12;;;;;;;2.13;0.80;;;;;;;;;;3576975;40;20466;-70
2021/04/13 10:57:03;;;;;;;1.90;0.60;;;;;;;;;;3584140;40;20848;-69
2021/04/13 10:59:50;;;;;;;0.80;0.70;;;;;;;;;;3578394;39;20454;-70
2021/04/13 11:02:35;;;;;;;1.10;0.70;;;;;;;;;;3604038;39;20406;-70
2021/04/13 11:05:20;;;;;;;1.10;0.80;;;;;;;;;;3595148;39;20380;-70
2021/04/13 11:08:36;;;;;;;1.20;0.82;;;15.70;39.70;;;;;;3598763;39;20365;-70
2021/04/13 11:11:45;;;;;;;1.70;0.82;;;16.70;38.70;;;;;;3562187;40;20755;-70
2021/04/13 11:14:44;;;;;;;1.10;0.80;;;16.70;39.40;;;;;;3525859;40;20761;-70
2021/04/13 11:17:49;;;;;;;1.75;1.00;;;16.60;38.50;;;;;;3519742;40;20446;-70
2021/04/13 11:20:23;;;;;;;1.63;0.93;;;16.60;39.60;;;;;;3519711;40;20388;-72
2021/04/13 11:23:37;;;;;;;1.17;0.77;;;16.70;41.10;;;;;;3525784;40;20461;-70
2021/04/13 11:26:21;;;;;;;1.13;0.90;;;;;;;;;;3563462;40;20422;-70
2021/04/13 11:29:07;;;;;;;2.28;1.00;;;;;;;;;;3594914;40;20672;-70
2021/04/13 11:31:38;;;;;;;2.17;1.30;;;;;;;;;;3564648;40;20398;-70
2021/04/13 11:34:24;;;;;;;1.10;0.80;;;;;;;;;;3565880;40;20384;-70
2021/04/13 11:37:02;;;;;;;1.23;0.90;;;;;;;;;;3561267;40;20381;-72
2021/04/13 11:39:32;;;;;;;1.50;0.90;;;;;;;;;;3564911;40;20483;-71
2021/04/13 11:42:16;;;;;;;0.98;0.90;;;;;;;;;;3558714;40;20392;-70
2021/04/13 11:44:50;;;;;;;1.63;0.85;;;17.00;38.10;;;;;;3567538;40;20388;-71
2021/04/13 11:47:19;;;;;;;1.10;0.95;;;;;;;;;;3563572;40;20663;-71
2021/04/13 11:49:50;;;;;;;2.83;1.00;;;;;;;;;;3555333;40;20426;-71
2021/04/13 11:52:21;;;;;;;2.22;1.00;;;;;;;;;;3564718;40;20640;-71
2021/04/13 11:54:49;;;;;;;1.88;0.90;;;;;;;;;;3565377;40;20477;-70
2021/04/13 11:57:17;;;;;;;2.50;1.10;;;16.20;41.40;;;;;;3564763;40;20425;-70
2021/04/13 11:59:44;;;;;;;1.70;1.00;;;;;;;;;;3569289;40;20502;-70
2021/04/13 12:02:18;;;;;;;1.85;1.60;;;;;;;;;;3569273;40;20396;-72
2021/04/13 12:04:46;;;;;;;1.45;1.00;;;;;;;;;;3576224;40;20388;-71
2021/04/13 12:07:12;;;;;;;1.27;0.90;;;;;;;;;;3566025;40;20448;-71
2021/04/13 12:09:42;;;;;;;2.00;1.17;;;;;;;;;;3595488;40;20915;-72
2021/04/13 12:12:23;;;;;;;1.88;1.08;;;;;;;;;;3600533;39;20391;-71
2021/04/13 12:14:49;;;;;;;1.20;1.00;;;;;;;;;;3594383;39;20826;-71
2021/04/13 12:17:37;;;;;;;1.37;1.00;;;;;;;;;;3587358;40;20738;-71
2021/04/13 12:20:29;;;;;;;1.15;0.80;;;;;;;;;;3595259;40;20383;-71
2021/04/13 12:22:56;;;;;;;1.80;1.20;;;;;;;;;;3592848;39;20401;-71
2021/04/13 12:25:37;;;;;;;1.40;1.00;;;;;;;;;;3604182;39;20405;-71
2021/04/13 12:28:07;;;;;;;1.45;0.90;;;;;;;;;;3599625;39;20418;-71
2021/04/13 12:30:53;;;;;;;2.40;0.90;;;;;;;;;;3607748;39;20371;-72
2021/04/13 12:33:38;;;;;;;1.30;0.93;;;;;;;;;;3601035;39;20683;-72
2021/04/13 12:36:06;;;;;;;1.65;0.93;;;;;;;;;;3608218;39;20597;-71
2021/04/13 12:38:36;;;;;;;2.25;1.20;;;;;;;;;;3598305;39;20405;-71
2021/04/13 12:41:10;;;;;;;1.05;0.77;;;;;;;;;;3608244;39;20384;-71
2021/04/13 12:43:42;;;;;;;1.43;0.70;;;17.30;40.30;;;;;;3608111;39;20432;-72
2021/04/13 12:46:19;;;;;;;1.80;0.80;;;;;;;;;;3599437;39;20394;-72
2021/04/13 12:48:46;;;;;;;1.80;0.95;;;;;;;;;;3601794;39;20386;-71
2021/04/13 12:51:18;;;;;;;1.90;0.80;;;;;;;;;;3605909;39;20537;-72
2021/04/13 12:53:44;;;;;;;1.63;0.90;;;;;;;;;;3608090;39;20363;-72
2021/04/13 12:56:13;;;;;;;1.00;0.80;;;16.60;38.40;;;;;;3608319;39;20407;-71
2021/04/13 12:58:41;;;;;;;2.10;1.08;;;16.80;35.60;;;;;;3598610;39;20403;-71
2021/04/13 13:01:13;;;;;;;2.22;0.70;;;15.80;36.50;;;;;;3608015;39;20351;-71
2021/04/13 13:03:40;;;;;;;1.70;0.90;;;15.80;40.70;;;;;;3607817;39;20480;-71
2021/04/13 13:06:15;;;;;;;0.80;0.77;;;16.10;39.00;;;;;;3596626;39;20531;-71
2021/04/13 13:08:42;;;;;;;1.02;0.90;;;16.70;40.90;;;;;;3594400;39;20667;-72
2021/04/13 13:11:13;;;;;;;1.40;0.80;;;17.50;36.40;;;;;;3607797;39;20383;-71
2021/04/13 13:13:47;;;;;;;1.27;0.73;;;17.50;37.10;;;;;;3607447;39;20359;-70
2021/04/13 13:16:14;;;;;;;1.40;0.80;;;;;;;;;;3597825;40;20726;-71
2021/04/13 13:18:42;;;;;;;1.70;0.80;;;17.50;37.10;;;;;;3596437;40;20482;-71
2021/04/13 13:21:09;;;;;;;0.70;0.60;;;;;;;;;;3587356;40;20501;-71
2021/04/13 13:23:37;;;;;;;1.73;0.80;;;;;;;;;;3604511;39;20751;-71
2021/04/13 13:26:14;;;;;;;1.38;0.60;;;;;;;;;;3607749;39;20378;-71
2021/04/13 13:28:44;;;;;;;1.90;0.90;;;;;;;;;;3608021;39;20355;-70
2021/04/13 13:31:13;;;;;;;1.30;0.50;;;;;;;;;;3595078;39;20415;-71
2021/04/13 13:33:40;;;;;;;1.33;0.60;;;;;;;;;;3597852;40;20356;-71
2021/04/13 13:36:07;;;;;;;0.70;0.60;;;18.20;64.00;;;;;;3606981;39;20489;-71
2021/04/13 13:38:37;;;;;;;1.33;0.70;;;18.50;34.50;;;;;;3607673;39;20356;-71
2021/04/13 13:41:04;;;;;;;4.10;1.10;;;;;;;;;;3607820;39;20473;-71
2021/04/13 13:43:35;;;;;;;1.00;0.60;;;17.80;35.10;;;;;;3612567;39;20749;-71
2021/04/13 13:46:31;;;;;;;1.65;0.70;;;17.00;36.70;;;;;;3609749;39;20359;-69
2021/04/13 13:49:14;;;;;;;0.97;0.60;;;;;;;;;;3607716;39;20351;-69
2021/04/13 13:51:40;;;;;;;1.33;0.70;;;;;;;;;;3597581;40;20662;-70
2021/04/13 13:54:11;;;;;;;1.27;0.90;;;;;;;;;;3597717;40;20341;-70
2021/04/13 13:56:38;;;;;;;1.73;1.00;;;17.40;36.90;;;;;;3597524;40;20400;-70
2021/04/13 13:59:32;;;;;;;2.03;1.10;;;17.00;39.80;;;;;;3597779;40;20738;-71
2021/04/13 14:02:08;;;;;;;1.60;0.90;;;17.40;40.20;;;;;;3555697;40;20477;-71
2021/04/13 14:04:35;;;;;;;1.50;0.87;;;;;;;;;;3594226;39;20424;-70
2021/04/13 14:07:01;;;;;;;1.25;0.70;;;18.10;36.80;;;;;;3607535;39;20627;-70
2021/04/13 14:09:28;;;;;;;1.00;0.70;;;;;;;;;;3607583;39;20391;-70
2021/04/13 14:11:54;;;;;;;1.30;0.70;;;;;;;;;;3607708;39;20351;-70
2021/04/13 14:14:34;;;;;;;1.20;0.90;;;;;;;;;;3607568;39;20395;-70
2021/04/13 14:17:11;;;;;;;1.38;0.70;;;;;;;;;;3607738;39;20336;-70
2021/04/13 14:19:38;;;;;;;1.17;0.90;;;;;;;;;;3596964;39;20394;-70
2021/04/13 14:22:18;;;;;;;1.30;0.70;;;;;;;;;;3607320;39;20415;-70
2021/04/13 14:24:45;;;;;;;2.22;0.80;;;;;;;;;;3598138;39;20395;-70
2021/04/13 14:27:17;;;;;;;1.63;0.70;;;;;;;;;;3611032;39;20445;-71
2021/04/13 14:29:44;;;;;;;1.45;0.70;;;;;;;;;;3607595;39;20393;-70
2021/04/13 14:32:12;;;;;;;0.70;0.60;;;;;;;;;;3607763;39;20339;-70
2021/04/13 14:34:40;;;;;;;1.65;0.60;;;;;;;;;;3587357;40;20406;-70
2021/04/13 14:37:08;;;;;;;2.00;0.80;;;;;;;;;;3597298;40;20961;-70
2021/04/13 14:39:35;;;;;;;1.17;0.80;;;;;;;;;;3597410;40;20349;-71
2021/04/13 14:42:01;;;;;;;0.77;0.73;;;;;;;;;;3597532;40;20352;-71
2021/04/13 14:44:27;;;;;;;3.15;1.10;;;;;;;;;;3597270;40;20788;-70
2021/04/13 14:46:54;;;;;;;1.17;0.80;;;;;;;;;;3597368;40;20360;-69
2021/04/13 14:49:20;;;;;;;1.38;0.90;;;;;;;;;;3597271;40;20345;-70
2021/04/13 14:51:47;;;;;;;1.50;0.90;;;;;;;;;;3597235;40;20365;-70